createdAt,value
2023-05-07T00:00:20.206Z,99206.13
2023-05-07T00:03:06.528Z,99207.34
2023-05-07T00:05:53.899Z,99207.78
2023-05-07T00:08:39.677Z,99218.13
2023-05-07T00:11:25.557Z,99215.78
2023-05-07T00:14:11.140Z,99200.28
2023-05-07T00:16:56.958Z,99200.72
2023-05-07T00:19:42.082Z,99203.50
2023-05-07T00:22:27.372Z,99206.72
2023-05-07T00:25:12.699Z,99202.38
2023-05-07T00:28:03.647Z,99205.16
2023-05-07T00:30:48.820Z,99202.03
2023-05-07T00:33:34.527Z,99206.78
2023-05-07T00:36:19.994Z,99206.00
2023-05-07T00:39:05.626Z,99205.22
2023-05-07T00:41:52.382Z,99198.09
2023-05-07T00:44:37.794Z,99195.31
2023-05-07T00:47:23.210Z,99205.28
2023-05-07T00:50:11.044Z,99193.38
2023-05-07T00:52:56.829Z,99200.97
2023-05-07T00:55:42.070Z,99200.59
2023-05-07T00:58:27.846Z,99202.16
2023-05-07T01:01:13.399Z,99204.59
2023-05-07T01:03:59.335Z,99202.25
2023-05-07T01:06:46.706Z,99197.47
2023-05-07T01:09:32.904Z,99201.47
2023-05-07T01:12:18.281Z,99207.44
2023-05-07T01:15:06.064Z,99209.44
2023-05-07T01:17:52.528Z,99204.31
2023-05-07T01:20:44.475Z,99205.09
2023-05-07T01:23:31.365Z,99203.53
2023-05-07T01:26:17.376Z,99207.50
2023-05-07T01:29:04.498Z,99211.09
2023-05-07T01:31:53.552Z,99213.06
2023-05-07T01:34:40.216Z,99214.28
2023-05-07T01:37:26.776Z,99222.63
2023-05-07T01:40:13.000Z,99221.06
2023-05-07T01:42:58.599Z,99219.50
2023-05-07T01:45:45.523Z,99224.28
2023-05-07T01:48:31.768Z,99224.28
2023-05-07T01:51:17.168Z,99223.50
2023-05-07T01:54:02.490Z,99219.13
2023-05-07T01:56:49.914Z,99216.34
2023-05-07T01:59:35.661Z,99217.13
2023-05-07T02:02:20.995Z,99223.94
2023-05-07T02:05:07.344Z,99210.44
2023-05-07T02:07:52.618Z,99218.78
2023-05-07T02:10:38.008Z,99218.78
2023-05-07T02:13:26.757Z,99219.56
2023-05-07T02:16:12.398Z,99220.78
2023-05-07T02:18:59.159Z,99225.22
2023-05-07T02:21:44.846Z,99233.56
2023-05-07T02:24:31.023Z,99220.84
2023-05-07T02:27:16.452Z,99226.41
2023-05-07T02:30:03.277Z,99228.41
2023-05-07T02:32:48.507Z,99233.19
2023-05-07T02:35:33.670Z,99227.63
2023-05-07T02:38:19.280Z,99229.63
2023-05-07T02:41:04.920Z,99223.25
2023-05-07T02:43:50.448Z,99218.94
2023-05-07T02:46:36.242Z,99222.50
2023-05-07T02:49:27.099Z,99220.94
2023-05-07T02:52:13.815Z,99219.34
2023-05-07T02:54:59.098Z,99213.00
2023-05-07T02:57:44.358Z,99221.34
2023-05-07T03:00:30.783Z,99226.13
2023-05-07T03:03:38.358Z,99219.78
2023-05-07T03:06:23.923Z,99228.13
2023-05-07T03:09:09.576Z,99219.78
2023-05-07T03:11:54.918Z,99218.22
2023-05-07T03:14:40.260Z,99226.53
2023-05-07T03:17:25.707Z,99223.00
2023-05-07T03:20:12.129Z,99236.13
2023-05-07T03:22:58.461Z,99224.19
2023-05-07T03:25:43.684Z,99221.84
2023-05-07T03:28:28.950Z,99238.53
2023-05-07T03:31:19.354Z,99232.97
2023-05-07T03:34:05.238Z,99244.09
2023-05-07T03:36:50.545Z,99238.53
2023-05-07T03:39:37.585Z,99236.16
2023-05-07T03:42:23.050Z,99239.72
2023-05-07T03:45:11.033Z,99240.94
2023-05-07T03:47:59.619Z,99240.19
2023-05-07T03:50:44.803Z,99242.16
2023-05-07T03:53:30.649Z,99244.94
2023-05-07T03:56:17.677Z,99244.16
2023-05-07T03:59:03.630Z,99244.16
2023-05-07T04:01:49.961Z,99249.28
2023-05-07T04:04:37.343Z,99246.94
2023-05-07T04:07:23.561Z,99236.94
2023-05-07T04:10:11.481Z,99238.09
2023-05-07T04:13:00.286Z,99245.59
2023-05-07T04:15:47.502Z,99255.06
2023-05-07T04:18:35.509Z,99252.66
2023-05-07T04:21:21.866Z,99244.66
2023-05-07T04:24:10.016Z,99249.72
2023-05-07T04:26:56.203Z,99258.44
2023-05-07T04:29:43.357Z,99248.44
2023-05-07T04:32:31.888Z,99260.72
2023-05-07T04:35:18.381Z,99254.72
2023-05-07T04:38:03.805Z,99274.56
2023-05-07T04:40:49.140Z,99265.78
2023-05-07T04:43:39.149Z,99272.50
2023-05-07T04:46:26.467Z,99281.63
2023-05-07T04:49:14.333Z,99277.97
2023-05-07T04:52:00.029Z,99285.91
2023-05-07T04:54:45.300Z,99292.59
2023-05-07T04:57:31.173Z,99290.19
2023-05-07T05:00:17.698Z,99290.53
2023-05-07T05:03:04.682Z,99290.13
2023-05-07T05:05:50.980Z,99290.81
2023-05-07T05:08:37.183Z,99293.94
2023-05-07T05:11:23.233Z,99293.53
2023-05-07T05:14:08.708Z,99287.53
2023-05-07T05:16:54.369Z,99283.53
2023-05-07T05:19:40.198Z,99281.53
2023-05-07T05:22:26.641Z,99295.38
2023-05-07T05:25:12.462Z,99303.31
2023-05-07T05:27:57.792Z,99296.16
2023-05-07T05:30:43.504Z,99300.53
2023-05-07T05:33:29.247Z,99303.31
2023-05-07T05:36:20.040Z,99317.22
2023-05-07T05:39:06.981Z,99310.44
2023-05-07T05:41:52.518Z,99308.81
2023-05-07T05:44:39.471Z,99309.16
2023-05-07T05:47:24.717Z,99308.75
2023-05-07T05:50:13.289Z,99324.22
2023-05-07T05:53:00.400Z,99328.22
2023-05-07T05:55:47.382Z,99327.00
2023-05-07T05:58:33.005Z,99332.56
2023-05-07T06:01:21.486Z,99334.22
2023-05-07T06:04:08.720Z,99331.06
2023-05-07T06:06:54.073Z,99343.41
2023-05-07T06:09:39.982Z,99339.03
2023-05-07T06:12:25.346Z,99343.81
2023-05-07T06:15:11.558Z,99348.63
2023-05-07T06:17:58.501Z,99355.72
2023-05-07T06:20:43.990Z,99357.75
2023-05-07T06:23:36.814Z,99357.31
2023-05-07T06:26:24.035Z,99344.69
2023-05-07T06:29:09.427Z,99341.13
2023-05-07T06:31:55.131Z,99344.69
2023-05-07T06:34:42.349Z,99354.59
2023-05-07T06:37:28.411Z,99355.81
2023-05-07T06:40:17.833Z,99360.16
2023-05-07T06:43:04.350Z,99360.59
2023-05-07T06:46:00.902Z,99361.38
2023-05-07T06:48:46.719Z,99366.94
2023-05-07T06:51:31.944Z,99372.09
2023-05-07T06:54:22.026Z,99364.53
2023-05-07T06:57:08.341Z,99366.09
2023-05-07T06:59:54.519Z,99366.88
2023-05-07T07:02:41.110Z,99376.44
2023-05-07T07:05:28.297Z,99373.25
2023-05-07T07:08:14.189Z,99379.22
2023-05-07T07:11:00.080Z,99376.03
2023-05-07T07:13:46.237Z,99378.00
2023-05-07T07:16:31.710Z,99379.59
2023-05-07T07:19:17.578Z,99382.38
2023-05-07T07:22:06.034Z,99381.97
2023-05-07T07:24:52.319Z,99387.88
2023-05-07T07:27:38.138Z,99383.53
2023-05-07T07:30:24.207Z,99390.25
2023-05-07T07:33:10.176Z,99388.59
2023-05-07T07:35:57.411Z,99388.19
2023-05-07T07:38:42.880Z,99382.56
2023-05-07T07:41:28.148Z,99385.69
2023-05-07T07:44:15.971Z,99383.25
2023-05-07T07:47:04.816Z,99383.19
2023-05-07T07:49:51.195Z,99391.97
2023-05-07T07:52:37.799Z,99394.75
2023-05-07T07:55:24.240Z,99405.44
2023-05-07T07:58:12.351Z,99403.81
2023-05-07T08:00:57.988Z,99402.25
2023-05-07T08:03:44.779Z,99404.94
2023-05-07T08:06:31.746Z,99410.09
2023-05-07T08:09:17.169Z,99406.09
2023-05-07T08:12:04.917Z,99403.66
2023-05-07T08:14:51.931Z,99412.81
2023-05-07T08:17:37.824Z,99420.38
2023-05-07T08:20:23.484Z,99421.16
2023-05-07T08:23:09.392Z,99416.38
2023-05-07T08:25:56.722Z,99416.38
2023-05-07T08:28:42.799Z,99419.16
2023-05-07T08:31:28.849Z,99412.00
2023-05-07T08:34:14.870Z,99423.50
2023-05-07T08:37:04.644Z,99417.09
2023-05-07T08:39:51.247Z,99419.53
2023-05-07T08:42:42.117Z,99417.94
2023-05-07T08:45:31.055Z,99423.50
2023-05-07T08:48:18.148Z,99427.09
2023-05-07T08:51:13.703Z,99422.38
2023-05-07T08:54:02.354Z,99427.53
2023-05-07T08:56:51.765Z,99435.00
2023-05-07T08:59:38.034Z,99437.88
2023-05-07T09:02:24.265Z,99439.84
2023-05-07T09:05:10.362Z,99438.66
2023-05-07T09:08:00.610Z,99449.00
2023-05-07T09:10:46.350Z,99444.66
2023-05-07T09:13:32.211Z,99443.50
2023-05-07T09:16:22.632Z,99451.06
2023-05-07T09:19:08.265Z,99451.50
2023-05-07T09:22:04.917Z,99449.94
2023-05-07T09:24:59.770Z,99454.00
2023-05-07T09:27:47.119Z,99449.28
2023-05-07T09:30:33.687Z,99448.13
2023-05-07T09:33:22.244Z,99447.00
2023-05-07T09:36:41.101Z,99440.66
2023-05-07T09:39:26.734Z,99439.91
2023-05-07T09:42:13.311Z,99433.63
2023-05-07T09:45:00.527Z,99438.81
2023-05-07T09:47:55.676Z,99442.81
2023-05-07T09:50:50.076Z,99442.44
2023-05-07T09:53:41.121Z,99450.44
2023-05-07T09:56:26.795Z,99441.72
2023-05-07T09:59:16.971Z,99456.06
2023-05-07T10:02:05.450Z,99460.84
2023-05-07T10:04:55.633Z,99457.69
2023-05-07T10:07:47.083Z,99452.13
2023-05-07T10:10:35.366Z,99456.13
2023-05-07T10:13:22.473Z,99454.53
2023-05-07T10:16:11.616Z,99463.31
2023-05-07T10:19:12.676Z,99457.81
2023-05-07T10:22:06.158Z,99457.81
2023-05-07T10:25:00.679Z,99456.69
2023-05-07T10:27:48.808Z,99464.25
2023-05-07T10:30:39.378Z,99457.03
2023-05-07T10:33:29.895Z,99446.31
2023-05-07T10:36:16.245Z,99447.56
2023-05-07T10:39:02.321Z,99451.53
2023-05-07T10:41:48.970Z,99451.53
2023-05-07T10:51:22.443Z,99454.81
2023-05-07T10:54:14.071Z,99449.59
2023-05-07T10:57:37.760Z,99448.78
2023-05-07T11:03:24.647Z,99459.47
2023-05-07T11:06:17.317Z,99454.69
2023-05-07T11:09:52.092Z,99456.19
2023-05-07T11:12:40.300Z,99460.09
2023-05-07T11:15:40.561Z,99460.47
2023-05-07T11:18:54.983Z,99463.22
2023-05-07T11:21:47.249Z,99458.78
2023-05-07T11:25:03.257Z,99453.59
2023-05-07T11:27:49.257Z,99460.72
2023-05-07T11:30:35.789Z,99466.63
2023-05-07T11:33:27.922Z,99461.06
2023-05-07T11:36:15.303Z,99454.66
2023-05-07T11:39:05.665Z,99455.03
2023-05-07T11:41:53.463Z,99451.06
2023-05-07T11:44:44.466Z,99458.19
2023-05-07T11:47:32.256Z,99455.41
2023-05-07T11:50:17.664Z,99464.47
2023-05-07T11:53:09.881Z,99452.97
2023-05-07T11:55:59.022Z,99454.94
2023-05-07T11:58:46.089Z,99452.91
2023-05-07T12:01:31.507Z,99460.41
2023-05-07T12:04:22.034Z,99454.41
2023-05-07T12:07:13.752Z,99458.75
2023-05-07T12:09:59.709Z,99462.34
2023-05-07T12:12:47.725Z,99458.34
2023-05-07T12:15:36.357Z,99459.13
2023-05-07T12:18:22.996Z,99458.34
2023-05-07T12:21:09.014Z,99463.06
2023-05-07T12:23:55.214Z,99458.66
2023-05-07T12:26:41.870Z,99465.38
2023-05-07T12:29:27.305Z,99465.00
2023-05-07T12:32:17.102Z,99466.56
2023-05-07T12:35:02.461Z,99464.56
2023-05-07T12:37:55.977Z,99465.38
2023-05-07T12:40:43.543Z,99461.75
2023-05-07T12:43:30.220Z,99467.28
2023-05-07T12:46:18.112Z,99470.44
2023-05-07T12:49:03.370Z,99460.50
2023-05-07T12:51:49.614Z,99458.50
2023-05-07T12:54:38.645Z,99457.22
2023-05-07T12:57:24.365Z,99453.66
2023-05-07T13:00:10.865Z,99454.81
2023-05-07T13:02:56.267Z,99454.00
2023-05-07T13:05:41.539Z,99457.50
2023-05-07T13:08:26.858Z,99451.09
2023-05-07T13:11:13.206Z,99450.22
2023-05-07T13:13:58.306Z,99447.06
2023-05-07T13:16:43.943Z,99447.44
2023-05-07T13:19:31.037Z,99447.44
2023-05-07T13:22:16.989Z,99443.78
2023-05-07T13:25:02.102Z,99440.22
2023-05-07T13:27:49.742Z,99438.22
2023-05-07T13:30:42.131Z,99436.66
2023-05-07T13:33:27.836Z,99431.13
2023-05-07T13:36:13.976Z,99428.00
2023-05-07T13:39:01.586Z,99431.94
2023-05-07T13:41:47.586Z,99440.72
2023-05-07T13:44:33.283Z,99437.53
2023-05-07T13:47:19.442Z,99430.78
2023-05-07T13:50:06.286Z,99442.72
2023-05-07T13:52:51.769Z,99429.66
2023-05-07T13:55:37.622Z,99443.22
2023-05-07T13:58:23.231Z,99451.56
2023-05-07T14:01:08.735Z,99448.00
2023-05-07T14:03:54.216Z,99452.00
2023-05-07T14:06:40.244Z,99447.22
2023-05-07T14:09:26.170Z,99445.31
2023-05-07T14:12:11.997Z,99445.31
2023-05-07T14:14:57.740Z,99438.94
2023-05-07T14:17:44.244Z,99440.94
2023-05-07T14:20:32.041Z,99440.16
2023-05-07T14:23:18.750Z,99432.94
2023-05-07T14:26:04.957Z,99433.72
2023-05-07T14:28:50.505Z,99432.22
2023-05-07T14:31:36.643Z,99422.66
2023-05-07T14:34:22.095Z,99419.88
2023-05-07T14:37:07.865Z,99420.25
2023-05-07T14:39:53.410Z,99415.50
2023-05-07T14:42:38.829Z,99415.88
2023-05-07T14:45:24.224Z,99415.88
2023-05-07T14:48:10.370Z,99416.66
2023-05-07T14:50:57.397Z,99420.56
2023-05-07T14:53:43.551Z,99419.78
2023-05-07T14:56:29.050Z,99430.50
2023-05-07T14:59:14.621Z,99434.50
2023-05-07T15:02:00.618Z,99438.88
2023-05-07T15:04:49.689Z,99431.28
2023-05-07T15:07:35.379Z,99427.72
2023-05-07T15:10:20.967Z,99430.88
2023-05-07T15:13:06.274Z,99424.94
2023-05-07T15:15:51.847Z,99426.50
2023-05-07T15:18:37.447Z,99425.66
2023-05-07T15:21:22.710Z,99432.78
2023-05-07T15:26:55.571Z,99435.56
2023-05-07T15:29:41.101Z,99435.56
2023-05-07T15:32:27.761Z,99438.34
2023-05-07T15:35:13.800Z,99431.22
2023-05-07T15:37:59.232Z,99447.94
2023-05-07T15:40:44.542Z,99444.03
2023-05-07T15:43:29.689Z,99453.94
2023-05-07T15:46:19.493Z,99458.72
2023-05-07T15:49:05.646Z,99452.00
2023-05-07T15:51:51.956Z,99460.00
2023-05-07T15:54:41.080Z,99455.22
2023-05-07T15:57:26.758Z,99451.66
2023-05-07T16:00:12.667Z,99458.00
2023-05-07T16:02:58.549Z,99457.63
2023-05-07T16:05:44.155Z,99459.66
2023-05-07T16:08:29.598Z,99464.44
2023-05-07T16:11:15.186Z,99460.06
2023-05-07T16:14:03.297Z,99458.06
2023-05-07T16:16:48.865Z,99464.00
2023-05-07T16:19:34.313Z,99457.22
2023-05-07T16:22:20.067Z,99456.78
2023-05-07T16:25:05.719Z,99454.34
2023-05-07T16:27:51.058Z,99461.94
2023-05-07T16:30:36.229Z,99470.69
2023-05-07T16:33:21.624Z,99461.56
2023-05-07T16:36:07.378Z,99456.88
2023-05-07T16:38:52.854Z,99464.84
2023-05-07T16:41:38.451Z,99457.28
2023-05-07T16:44:23.989Z,99453.34
2023-05-07T16:47:09.535Z,99452.56
2023-05-07T16:49:54.829Z,99459.34
2023-05-07T16:52:40.721Z,99455.38
2023-05-07T16:55:26.291Z,99454.22
2023-05-07T16:58:12.391Z,99457.78
2023-05-07T17:00:58.022Z,99456.19
2023-05-07T17:03:43.326Z,99461.75
2023-05-07T17:06:29.151Z,99463.78
2023-05-07T17:09:14.319Z,99477.28
2023-05-07T17:11:59.654Z,99485.56
2023-05-07T17:14:45.146Z,99490.28
2023-05-07T17:17:30.338Z,99490.69
2023-05-07T17:20:15.855Z,99488.28
2023-05-07T17:23:01.935Z,99492.28
2023-05-07T17:25:48.731Z,99501.41
2023-05-07T17:28:34.314Z,99500.28
2023-05-07T17:31:19.580Z,99495.53
2023-05-07T17:34:04.900Z,99502.75
2023-05-07T17:36:50.362Z,99504.75
2023-05-07T17:39:35.635Z,99503.97
2023-05-07T17:42:21.261Z,99500.06
2023-05-07T17:45:07.146Z,99507.22
2023-05-07T17:47:52.853Z,99500.88
2023-05-07T17:50:37.965Z,99500.88
2023-05-07T17:53:24.673Z,99510.09
2023-05-07T17:56:10.515Z,99502.59
2023-05-07T17:58:59.306Z,99503.81
2023-05-07T18:01:45.218Z,99509.00
2023-05-07T18:04:30.894Z,99507.44
2023-05-07T18:07:16.140Z,99507.44
2023-05-07T18:10:01.585Z,99515.00
2023-05-07T18:12:46.972Z,99521.00
2023-05-07T18:15:32.313Z,99533.34
2023-05-07T18:18:19.356Z,99528.25
2023-05-07T18:21:05.394Z,99535.84
2023-05-07T18:23:51.454Z,99533.91
2023-05-07T18:26:37.148Z,99536.75
2023-05-07T18:29:22.915Z,99541.59
2023-05-07T18:32:08.292Z,99537.66
2023-05-07T18:34:54.431Z,99536.50
2023-05-07T18:37:40.235Z,99544.47
2023-05-07T18:40:25.706Z,99556.47
2023-05-07T18:43:11.353Z,99558.09
2023-05-07T18:45:56.701Z,99560.16
2023-05-07T18:48:42.075Z,99564.94
2023-05-07T18:51:27.401Z,99565.75
2023-05-07T18:54:12.854Z,99568.22
2023-05-07T18:56:58.931Z,99564.31
2023-05-07T18:59:44.615Z,99567.50
2023-05-07T19:02:29.823Z,99558.78
2023-05-07T19:05:15.105Z,99567.13
2023-05-07T19:08:00.481Z,99566.75
2023-05-07T19:10:45.797Z,99570.75
2023-05-07T19:13:31.332Z,99573.56
2023-05-07T19:16:16.954Z,99563.66
2023-05-07T19:19:02.232Z,99566.88
2023-05-07T19:21:47.569Z,99573.63
2023-05-07T19:24:33.248Z,99576.06
2023-05-07T19:27:18.750Z,99582.41
2023-05-07T19:30:04.905Z,99572.47
2023-05-07T19:32:50.416Z,99578.84
2023-05-07T19:35:35.751Z,99582.03
2023-05-07T19:38:20.899Z,99584.03
2023-05-07T19:41:06.347Z,99579.66
2023-05-07T19:43:51.667Z,99593.56
2023-05-07T19:46:40.237Z,99595.59
2023-05-07T19:49:25.800Z,99591.25
2023-05-07T19:52:11.036Z,99597.22
2023-05-07T19:54:56.341Z,99605.97
2023-05-07T19:57:41.457Z,99612.75
2023-05-07T20:00:31.402Z,99618.31
2023-05-07T20:03:18.833Z,99616.75
2023-05-07T20:06:04.548Z,99616.75
2023-05-07T20:08:50.259Z,99616.38
2023-05-07T20:11:35.884Z,99620.34
2023-05-07T20:14:21.311Z,99627.13
2023-05-07T20:17:06.667Z,99623.97
2023-05-07T20:19:52.010Z,99634.69
2023-05-07T20:22:37.183Z,99635.88
2023-05-07T20:25:22.524Z,99643.03
2023-05-07T20:28:07.748Z,99632.31
2023-05-07T20:30:53.174Z,99640.66
2023-05-07T20:33:40.850Z,99633.91
2023-05-07T20:36:26.575Z,99647.44
2023-05-07T20:39:15.941Z,99643.88
2023-05-07T20:42:01.434Z,99648.66
2023-05-07T20:44:46.687Z,99645.50
2023-05-07T20:47:33.715Z,99650.28
2023-05-07T20:50:19.126Z,99657.81
2023-05-07T20:53:04.338Z,99652.25
2023-05-07T20:55:49.883Z,99646.28
2023-05-07T20:58:35.204Z,99653.41
2023-05-07T21:01:20.566Z,99650.63
2023-05-07T21:04:06.209Z,99650.63
2023-05-07T21:06:51.718Z,99651.44
2023-05-07T21:09:37.056Z,99648.66
2023-05-07T21:12:23.211Z,99644.66
2023-05-07T21:15:09.300Z,99642.66
2023-05-07T21:17:54.877Z,99643.84
2023-05-07T21:20:40.261Z,99654.97
2023-05-07T21:23:25.773Z,99652.97
2023-05-07T21:26:17.270Z,99654.16
2023-05-07T21:29:02.758Z,99654.97
2023-05-07T21:31:48.771Z,99658.53
2023-05-07T21:34:34.118Z,99665.28
2023-05-07T21:37:19.297Z,99667.66
2023-05-07T21:40:05.783Z,99663.31
2023-05-07T21:42:51.526Z,99659.31
2023-05-07T21:45:38.691Z,99663.69
2023-05-07T21:48:26.190Z,99658.56
2023-05-07T21:51:13.121Z,99661.34
2023-05-07T21:53:58.656Z,99658.56
2023-05-07T21:56:44.056Z,99667.31
2023-05-07T21:59:29.296Z,99666.53
2023-05-07T22:02:14.715Z,99677.63
2023-05-07T22:05:00.550Z,99671.72
2023-05-07T22:07:46.005Z,99682.81
2023-05-07T22:10:31.378Z,99671.72
2023-05-07T22:13:16.978Z,99663.38
2023-05-07T22:16:02.127Z,99670.13
2023-05-07T22:18:49.664Z,99669.34
2023-05-07T22:21:35.416Z,99667.75
2023-05-07T22:24:20.831Z,99666.22
2023-05-07T22:27:06.053Z,99675.31
2023-05-07T22:29:51.440Z,99666.22
2023-05-07T22:32:36.836Z,99661.06
2023-05-07T22:35:22.026Z,99665.03
2023-05-07T22:38:07.376Z,99663.84
2023-05-07T22:40:52.700Z,99662.28
2023-05-07T22:43:39.431Z,99673.38
2023-05-07T22:46:25.024Z,99670.22
2023-05-07T22:49:10.172Z,99661.47
2023-05-07T22:51:55.541Z,99657.91
2023-05-07T22:54:40.882Z,99662.28
2023-05-07T22:57:26.455Z,99663.44
2023-05-07T23:00:12.398Z,99656.34
2023-05-07T23:02:58.076Z,99657.53
2023-05-07T23:05:44.359Z,99661.88
2023-05-07T23:08:29.469Z,99671.03
2023-05-07T23:11:14.951Z,99659.91
2023-05-07T23:14:00.786Z,99670.22
2023-05-07T23:16:46.648Z,99658.31
2023-05-07T23:19:31.853Z,99670.22
2023-05-07T23:22:17.187Z,99669.78
2023-05-07T23:25:03.459Z,99663.06
2023-05-07T23:27:50.056Z,99672.63
2023-05-07T23:30:35.510Z,99669.84
2023-05-07T23:33:21.036Z,99674.19
2023-05-07T23:36:07.273Z,99676.97
2023-05-07T23:38:52.691Z,99676.97
2023-05-07T23:41:37.859Z,99674.19
2023-05-07T23:44:23.154Z,99673.41
2023-05-07T23:47:08.662Z,99665.84
2023-05-07T23:49:53.958Z,99667.47
2023-05-07T23:52:39.393Z,99669.47
2023-05-07T23:55:24.658Z,99669.47
2023-05-07T23:58:10.024Z,99672.66
